sensor_id;sensor_type;location;lat;lon;timestamp;P1;durP1;ratioP1;P2;durP2;ratioP2
46377;SDS011;32083;47.360;9.650;2023-06-10T04:02:47;13.63;;;12.27;;
46377;SDS011;32083;47.360;9.650;2023-06-10T04:05:16;13.48;;;12.18;;
46377;SDS011;32083;47.360;9.650;2023-06-10T04:07:43;12.68;;;11.48;;
46377;SDS011;32083;47.360;9.650;2023-06-10T04:10:12;52.45;;;16.38;;
46377;SDS011;32083;47.360;9.650;2023-06-10T04:12:38;20.35;;;14.65;;
46377;SDS011;32083;47.360;9.650;2023-06-10T04:15:05;14.20;;;12.73;;
46377;SDS011;32083;47.360;9.650;2023-06-10T04:17:32;28.30;;;14.77;;
46377;SDS011;32083;47.360;9.650;2023-06-10T04:20:02;11.05;;;9.95;;
46377;SDS011;32083;47.360;9.650;2023-06-10T04:22:32;11.68;;;10.43;;
46377;SDS011;32083;47.360;9.650;2023-06-10T04:24:58;12.07;;;9.63;;
46377;SDS011;32083;47.360;9.650;2023-06-10T04:27:24;10.57;;;9.27;;
46377;SDS011;32083;47.360;9.650;2023-06-10T04:29:50;10.45;;;9.02;;
46377;SDS011;32083;47.360;9.650;2023-06-10T04:32:16;11.15;;;9.32;;
46377;SDS011;32083;47.360;9.650;2023-06-10T04:34:42;9.20;;;8.43;;
46377;SDS011;32083;47.360;9.650;2023-06-10T04:37:08;11.00;;;8.65;;
46377;SDS011;32083;47.360;9.650;2023-06-10T04:39:33;8.57;;;7.78;;
46377;SDS011;32083;47.360;9.650;2023-06-10T04:41:59;7.63;;;6.88;;
46377;SDS011;32083;47.360;9.650;2023-06-10T04:44:26;8.88;;;8.05;;
46377;SDS011;32083;47.360;9.650;2023-06-10T04:46:52;7.80;;;7.10;;
46377;SDS011;32083;47.360;9.650;2023-06-10T04:49:18;9.55;;;8.55;;
46377;SDS011;32083;47.360;9.650;2023-06-10T04:51:44;7.93;;;7.07;;
46377;SDS011;32083;47.360;9.650;2023-06-10T04:54:10;8.30;;;7.60;;
46377;SDS011;32083;47.360;9.650;2023-06-10T04:56:36;8.55;;;7.75;;
46377;SDS011;32083;47.360;9.650;2023-06-10T04:59:02;8.48;;;7.68;;
46377;SDS011;32083;47.360;9.650;2023-06-10T05:01:28;8.52;;;7.72;;
46377;SDS011;32083;47.360;9.650;2023-06-10T05:03:54;8.70;;;7.85;;
46377;SDS011;32083;47.360;9.650;2023-06-10T05:06:20;8.48;;;7.70;;
46377;SDS011;32083;47.360;9.650;2023-06-10T05:08:45;10.25;;;8.60;;
46377;SDS011;32083;47.360;9.650;2023-06-10T05:11:12;8.85;;;8.05;;
46377;SDS011;32083;47.360;9.650;2023-06-10T05:13:38;9.23;;;8.32;;
46377;SDS011;32083;47.360;9.650;2023-06-10T05:16:05;8.73;;;7.93;;
46377;SDS011;32083;47.360;9.650;2023-06-10T05:18:32;8.73;;;7.63;;
46377;SDS011;32083;47.360;9.650;2023-06-10T05:20:58;9.18;;;8.32;;
46377;SDS011;32083;47.360;9.650;2023-06-10T05:23:24;9.60;;;8.80;;
46377;SDS011;32083;47.360;9.650;2023-06-10T05:25:50;9.25;;;8.35;;
46377;SDS011;32083;47.360;9.650;2023-06-10T05:28:16;9.73;;;8.88;;
46377;SDS011;32083;47.360;9.650;2023-06-10T05:30:43;9.77;;;8.82;;
46377;SDS011;32083;47.360;9.650;2023-06-10T05:33:09;10.50;;;9.00;;
46377;SDS011;32083;47.360;9.650;2023-06-10T05:35:35;10.10;;;9.13;;
46377;SDS011;32083;47.360;9.650;2023-06-10T05:38:02;9.25;;;8.43;;
46377;SDS011;32083;47.360;9.650;2023-06-10T05:40:28;10.82;;;9.93;;
46377;SDS011;32083;47.360;9.650;2023-06-10T05:42:54;10.60;;;9.63;;
46377;SDS011;32083;47.360;9.650;2023-06-10T05:45:20;11.52;;;10.27;;
46377;SDS011;32083;47.360;9.650;2023-06-10T05:47:46;14.20;;;10.32;;
46377;SDS011;32083;47.360;9.650;2023-06-10T05:50:12;11.18;;;10.18;;
46377;SDS011;32083;47.360;9.650;2023-06-10T05:52:38;11.15;;;10.07;;
46377;SDS011;32083;47.360;9.650;2023-06-10T05:55:07;10.45;;;9.55;;
46377;SDS011;32083;47.360;9.650;2023-06-10T05:57:33;12.18;;;11.18;;
46377;SDS011;32083;47.360;9.650;2023-06-10T05:59:59;10.77;;;9.88;;
46377;SDS011;32083;47.360;9.650;2023-06-10T06:02:25;11.63;;;10.63;;
46377;SDS011;32083;47.360;9.650;2023-06-10T06:04:51;11.23;;;10.23;;
46377;SDS011;32083;47.360;9.650;2023-06-10T06:07:17;15.60;;;10.90;;
46377;SDS011;32083;47.360;9.650;2023-06-10T06:09:46;11.95;;;10.70;;
46377;SDS011;32083;47.360;9.650;2023-06-10T06:12:12;11.50;;;10.50;;
46377;SDS011;32083;47.360;9.650;2023-06-10T06:14:38;11.18;;;10.05;;
46377;SDS011;32083;47.360;9.650;2023-06-10T06:17:05;11.73;;;10.70;;
46377;SDS011;32083;47.360;9.650;2023-06-10T06:19:31;12.63;;;11.52;;
46377;SDS011;32083;47.360;9.650;2023-06-10T06:21:57;12.40;;;11.23;;
46377;SDS011;32083;47.360;9.650;2023-06-10T06:24:23;12.25;;;11.30;;
46377;SDS011;32083;47.360;9.650;2023-06-10T06:26:49;11.32;;;10.30;;
46377;SDS011;32083;47.360;9.650;2023-06-10T06:29:15;11.85;;;10.75;;
46377;SDS011;32083;47.360;9.650;2023-06-10T06:31:41;13.50;;;12.10;;
46377;SDS011;32083;47.360;9.650;2023-06-10T06:34:06;12.10;;;11.00;;
46377;SDS011;32083;47.360;9.650;2023-06-10T06:36:32;12.73;;;11.13;;
46377;SDS011;32083;47.360;9.650;2023-06-10T06:38:58;12.40;;;11.40;;
46377;SDS011;32083;47.360;9.650;2023-06-10T06:41:28;12.25;;;11.23;;
46377;SDS011;32083;47.360;9.650;2023-06-10T06:43:54;11.48;;;10.30;;
46377;SDS011;32083;47.360;9.650;2023-06-10T06:46:20;12.40;;;11.40;;
46377;SDS011;32083;47.360;9.650;2023-06-10T06:48:47;12.10;;;11.00;;
46377;SDS011;32083;47.360;9.650;2023-06-10T06:51:14;12.00;;;11.00;;
46377;SDS011;32083;47.360;9.650;2023-06-10T06:53:40;12.15;;;11.15;;
46377;SDS011;32083;47.360;9.650;2023-06-10T06:56:10;12.55;;;11.45;;
46377;SDS011;32083;47.360;9.650;2023-06-10T06:58:39;12.73;;;11.60;;
46377;SDS011;32083;47.360;9.650;2023-06-10T07:01:05;13.23;;;11.95;;
46377;SDS011;32083;47.360;9.650;2023-06-10T07:03:31;12.30;;;11.20;;
46377;SDS011;32083;47.360;9.650;2023-06-10T07:05:57;11.73;;;10.73;;
46377;SDS011;32083;47.360;9.650;2023-06-10T07:08:23;12.27;;;11.07;;
46377;SDS011;32083;47.360;9.650;2023-06-10T07:10:49;14.40;;;13.00;;
46377;SDS011;32083;47.360;9.650;2023-06-10T07:13:14;14.13;;;11.65;;
46377;SDS011;32083;47.360;9.650;2023-06-10T07:15:40;12.57;;;11.32;;
46377;SDS011;32083;47.360;9.650;2023-06-10T07:18:06;12.30;;;11.20;;
46377;SDS011;32083;47.360;9.650;2023-06-10T07:20:32;14.02;;;12.32;;
46377;SDS011;32083;47.360;9.650;2023-06-10T07:22:58;12.15;;;11.15;;
46377;SDS011;32083;47.360;9.650;2023-06-10T07:25:24;13.10;;;11.52;;
46377;SDS011;32083;47.360;9.650;2023-06-10T07:27:50;12.55;;;11.40;;
46377;SDS011;32083;47.360;9.650;2023-06-10T07:30:16;13.00;;;11.82;;
46377;SDS011;32083;47.360;9.650;2023-06-10T07:32:42;13.13;;;11.68;;
46377;SDS011;32083;47.360;9.650;2023-06-10T07:35:09;12.52;;;11.40;;
46377;SDS011;32083;47.360;9.650;2023-06-10T07:37:38;11.85;;;10.77;;
46377;SDS011;32083;47.360;9.650;2023-06-10T07:40:04;12.38;;;11.23;;
46377;SDS011;32083;47.360;9.650;2023-06-10T07:42:34;13.93;;;12.57;;
46377;SDS011;32083;47.360;9.650;2023-06-10T07:45:02;13.45;;;12.13;;
46377;SDS011;32083;47.360;9.650;2023-06-10T07:47:29;14.13;;;12.73;;
46377;SDS011;32083;47.360;9.650;2023-06-10T07:49:56;13.75;;;12.45;;
46377;SDS011;32083;47.360;9.650;2023-06-10T07:52:22;13.43;;;12.10;;
46377;SDS011;32083;47.360;9.650;2023-06-10T07:54:48;13.15;;;12.02;;
46377;SDS011;32083;47.360;9.650;2023-06-10T07:57:14;16.20;;;13.63;;
46377;SDS011;32083;47.360;9.650;2023-06-10T07:59:41;13.40;;;12.10;;
46377;SDS011;32083;47.360;9.650;2023-06-10T08:02:09;12.80;;;11.60;;
46377;SDS011;32083;47.360;9.650;2023-06-10T08:04:35;13.40;;;12.18;;
46377;SDS011;32083;47.360;9.650;2023-06-10T08:07:01;14.05;;;11.77;;
46377;SDS011;32083;47.360;9.650;2023-06-10T08:09:28;13.10;;;12.00;;
46377;SDS011;32083;47.360;9.650;2023-06-10T08:11:54;13.55;;;12.15;;
46377;SDS011;32083;47.360;9.650;2023-06-10T08:14:21;14.18;;;12.80;;
46377;SDS011;32083;47.360;9.650;2023-06-10T08:16:47;14.15;;;12.77;;
46377;SDS011;32083;47.360;9.650;2023-06-10T08:19:13;14.00;;;12.35;;
46377;SDS011;32083;47.360;9.650;2023-06-10T08:21:39;13.20;;;11.95;;
46377;SDS011;32083;47.360;9.650;2023-06-10T08:24:05;12.63;;;11.35;;
46377;SDS011;32083;47.360;9.650;2023-06-10T08:26:32;12.93;;;11.73;;
46377;SDS011;32083;47.360;9.650;2023-06-10T08:28:58;15.45;;;13.98;;
46377;SDS011;32083;47.360;9.650;2023-06-10T08:31:24;13.23;;;11.77;;
46377;SDS011;32083;47.360;9.650;2023-06-10T08:33:50;14.00;;;12.63;;
46377;SDS011;32083;47.360;9.650;2023-06-10T08:36:16;14.43;;;13.05;;
46377;SDS011;32083;47.360;9.650;2023-06-10T08:38:42;13.93;;;12.63;;
46377;SDS011;32083;47.360;9.650;2023-06-10T08:41:08;14.07;;;12.88;;
46377;SDS011;32083;47.360;9.650;2023-06-10T08:43:44;13.23;;;11.60;;
46377;SDS011;32083;47.360;9.650;2023-06-10T08:46:18;13.70;;;12.50;;
46377;SDS011;32083;47.360;9.650;2023-06-10T08:48:44;16.25;;;14.80;;
46377;SDS011;32083;47.360;9.650;2023-06-10T08:51:14;13.38;;;12.23;;
46377;SDS011;32083;47.360;9.650;2023-06-10T08:53:46;15.02;;;13.73;;
46377;SDS011;32083;47.360;9.650;2023-06-10T08:56:18;14.73;;;13.43;;
46377;SDS011;32083;47.360;9.650;2023-06-10T08:58:45;15.43;;;13.23;;
46377;SDS011;32083;47.360;9.650;2023-06-10T09:01:13;14.20;;;13.00;;
46377;SDS011;32083;47.360;9.650;2023-06-10T09:03:40;15.65;;;14.40;;
46377;SDS011;32083;47.360;9.650;2023-06-10T09:06:07;15.52;;;13.85;;
46377;SDS011;32083;47.360;9.650;2023-06-10T09:08:34;13.90;;;12.63;;
46377;SDS011;32083;47.360;9.650;2023-06-10T09:11:00;15.00;;;13.73;;
46377;SDS011;32083;47.360;9.650;2023-06-10T09:13:26;15.20;;;13.48;;
46377;SDS011;32083;47.360;9.650;2023-06-10T09:15:52;14.88;;;13.48;;
46377;SDS011;32083;47.360;9.650;2023-06-10T09:18:21;13.55;;;12.35;;
46377;SDS011;32083;47.360;9.650;2023-06-10T09:20:47;13.48;;;12.38;;
46377;SDS011;32083;47.360;9.650;2023-06-10T09:23:14;13.57;;;12.35;;
46377;SDS011;32083;47.360;9.650;2023-06-10T09:25:41;13.50;;;12.20;;
46377;SDS011;32083;47.360;9.650;2023-06-10T09:28:14;12.52;;;11.52;;
46377;SDS011;32083;47.360;9.650;2023-06-10T09:30:40;13.88;;;12.57;;
46377;SDS011;32083;47.360;9.650;2023-06-10T09:33:10;13.85;;;12.65;;
46377;SDS011;32083;47.360;9.650;2023-06-10T09:35:45;13.13;;;11.93;;
46377;SDS011;32083;47.360;9.650;2023-06-10T09:38:13;13.82;;;12.43;;
46377;SDS011;32083;47.360;9.650;2023-06-10T09:40:49;12.85;;;11.88;;
46377;SDS011;32083;47.360;9.650;2023-06-10T09:43:18;12.80;;;11.68;;
46377;SDS011;32083;47.360;9.650;2023-06-10T09:45:47;13.57;;;11.70;;
46377;SDS011;32083;47.360;9.650;2023-06-10T09:48:18;12.30;;;11.38;;
46377;SDS011;32083;47.360;9.650;2023-06-10T09:50:44;12.20;;;10.93;;
46377;SDS011;32083;47.360;9.650;2023-06-10T09:53:11;11.70;;;10.57;;
46377;SDS011;32083;47.360;9.650;2023-06-10T09:55:38;13.35;;;11.98;;
46377;SDS011;32083;47.360;9.650;2023-06-10T09:58:04;12.95;;;11.75;;
46377;SDS011;32083;47.360;9.650;2023-06-10T10:00:31;12.07;;;11.05;;
46377;SDS011;32083;47.360;9.650;2023-06-10T10:02:58;12.23;;;11.23;;
46377;SDS011;32083;47.360;9.650;2023-06-10T10:05:24;11.40;;;10.32;;
46377;SDS011;32083;47.360;9.650;2023-06-10T10:07:51;11.13;;;10.15;;
46377;SDS011;32083;47.360;9.650;2023-06-10T10:10:18;13.40;;;12.27;;
46377;SDS011;32083;47.360;9.650;2023-06-10T10:12:46;11.98;;;10.93;;
46377;SDS011;32083;47.360;9.650;2023-06-10T10:15:13;11.07;;;10.00;;
46377;SDS011;32083;47.360;9.650;2023-06-10T10:17:46;11.20;;;10.20;;
46377;SDS011;32083;47.360;9.650;2023-06-10T10:20:18;11.95;;;10.90;;
46377;SDS011;32083;47.360;9.650;2023-06-10T10:22:47;10.88;;;9.85;;
46377;SDS011;32083;47.360;9.650;2023-06-10T10:25:28;10.90;;;9.90;;
46377;SDS011;32083;47.360;9.650;2023-06-10T10:28:09;10.32;;;9.43;;
46377;SDS011;32083;47.360;9.650;2023-06-10T10:30:39;9.15;;;8.35;;
46377;SDS011;32083;47.360;9.650;2023-06-10T10:33:17;9.13;;;8.25;;
46377;SDS011;32083;47.360;9.650;2023-06-10T10:35:47;10.93;;;8.95;;
46377;SDS011;32083;47.360;9.650;2023-06-10T10:38:13;9.82;;;8.73;;
46377;SDS011;32083;47.360;9.650;2023-06-10T10:40:39;9.15;;;8.20;;
46377;SDS011;32083;47.360;9.650;2023-06-10T10:43:06;8.18;;;7.25;;
46377;SDS011;32083;47.360;9.650;2023-06-10T10:45:33;7.57;;;6.88;;
46377;SDS011;32083;47.360;9.650;2023-06-10T10:48:04;9.68;;;8.70;;
46377;SDS011;32083;47.360;9.650;2023-06-10T10:50:34;9.80;;;9.00;;
46377;SDS011;32083;47.360;9.650;2023-06-10T10:53:03;8.75;;;7.95;;
46377;SDS011;32083;47.360;9.650;2023-06-10T10:55:30;9.82;;;8.90;;
46377;SDS011;32083;47.360;9.650;2023-06-10T10:58:03;9.38;;;8.57;;
46377;SDS011;32083;47.360;9.650;2023-06-10T11:00:30;8.65;;;7.85;;
46377;SDS011;32083;47.360;9.650;2023-06-10T11:03:12;7.88;;;7.18;;
46377;SDS011;32083;47.360;9.650;2023-06-10T11:08:14;7.22;;;6.60;;
46377;SDS011;32083;47.360;9.650;2023-06-10T11:10:41;7.50;;;6.80;;
46377;SDS011;32083;47.360;9.650;2023-06-10T11:13:18;7.93;;;7.25;;
46377;SDS011;32083;47.360;9.650;2023-06-10T11:15:46;8.10;;;7.20;;
46377;SDS011;32083;47.360;9.650;2023-06-10T11:26:16;8.40;;;7.20;;
46377;SDS011;32083;47.360;9.650;2023-06-10T11:33:58;7.77;;;7.17;;
46377;SDS011;32083;47.360;9.650;2023-06-10T11:36:25;5.65;;;5.25;;
46377;SDS011;32083;47.360;9.650;2023-06-10T11:38:59;6.78;;;6.13;;
46377;SDS011;32083;47.360;9.650;2023-06-10T11:41:28;7.03;;;6.32;;
46377;SDS011;32083;47.360;9.650;2023-06-10T11:43:56;7.28;;;6.57;;
46377;SDS011;32083;47.360;9.650;2023-06-10T11:46:26;6.63;;;6.07;;
46377;SDS011;32083;47.360;9.650;2023-06-10T11:48:53;5.47;;;4.88;;
46377;SDS011;32083;47.360;9.650;2023-06-10T11:51:20;6.90;;;6.25;;
46377;SDS011;32083;47.360;9.650;2023-06-10T11:53:47;7.20;;;6.50;;
46377;SDS011;32083;47.360;9.650;2023-06-10T11:56:24;6.10;;;5.55;;
46377;SDS011;32083;47.360;9.650;2023-06-10T11:58:55;6.50;;;5.88;;
46377;SDS011;32083;47.360;9.650;2023-06-10T12:01:22;8.10;;;7.28;;
46377;SDS011;32083;47.360;9.650;2023-06-10T12:06:45;7.32;;;6.63;;
46377;SDS011;32083;47.360;9.650;2023-06-10T12:11:53;6.88;;;6.28;;
46377;SDS011;32083;47.360;9.650;2023-06-10T12:19:55;7.00;;;5.40;;
46377;SDS011;32083;47.360;9.650;2023-06-10T12:22:21;6.75;;;6.25;;
46377;SDS011;32083;47.360;9.650;2023-06-10T12:27:28;7.57;;;6.97;;
46377;SDS011;32083;47.360;9.650;2023-06-10T12:29:56;8.77;;;7.97;;
46377;SDS011;32083;47.360;9.650;2023-06-10T12:35:07;7.95;;;6.80;;
46377;SDS011;32083;47.360;9.650;2023-06-10T12:37:33;7.90;;;7.10;;
46377;SDS011;32083;47.360;9.650;2023-06-10T12:40:00;7.55;;;6.95;;
46377;SDS011;32083;47.360;9.650;2023-06-10T12:42:31;7.93;;;7.32;;
46377;SDS011;32083;47.360;9.650;2023-06-10T12:45:00;7.40;;;6.78;;
46377;SDS011;32083;47.360;9.650;2023-06-10T12:47:33;7.80;;;7.10;;
46377;SDS011;32083;47.360;9.650;2023-06-10T12:50:00;11.80;;;8.07;;
46377;SDS011;32083;47.360;9.650;2023-06-10T12:52:28;8.55;;;7.50;;
46377;SDS011;32083;47.360;9.650;2023-06-10T12:54:54;8.43;;;7.63;;
46377;SDS011;32083;47.360;9.650;2023-06-10T12:57:20;9.63;;;8.30;;
46377;SDS011;32083;47.360;9.650;2023-06-10T12:59:47;9.60;;;7.55;;
46377;SDS011;32083;47.360;9.650;2023-06-10T13:02:20;7.93;;;7.13;;
46377;SDS011;32083;47.360;9.650;2023-06-10T13:04:49;7.63;;;6.93;;
46377;SDS011;32083;47.360;9.650;2023-06-10T13:07:15;7.00;;;6.38;;
46377;SDS011;32083;47.360;9.650;2023-06-10T13:09:42;6.40;;;5.80;;
46377;SDS011;32083;47.360;9.650;2023-06-10T13:12:08;6.63;;;6.03;;
46377;SDS011;32083;47.360;9.650;2023-06-10T13:14:35;7.97;;;6.88;;
46377;SDS011;32083;47.360;9.650;2023-06-10T13:17:03;6.63;;;6.03;;
46377;SDS011;32083;47.360;9.650;2023-06-10T13:19:31;6.45;;;5.95;;
46377;SDS011;32083;47.360;9.650;2023-06-10T13:21:58;6.57;;;6.07;;
46377;SDS011;32083;47.360;9.650;2023-06-10T13:24:24;5.55;;;5.05;;
46377;SDS011;32083;47.360;9.650;2023-06-10T13:26:51;6.25;;;5.30;;
46377;SDS011;32083;47.360;9.650;2023-06-10T13:29:17;12.93;;;6.25;;
46377;SDS011;32083;47.360;9.650;2023-06-10T13:31:43;5.60;;;5.10;;
46377;SDS011;32083;47.360;9.650;2023-06-10T13:34:09;6.57;;;6.05;;
46377;SDS011;32083;47.360;9.650;2023-06-10T13:36:35;6.03;;;5.53;;
46377;SDS011;32083;47.360;9.650;2023-06-10T13:39:01;7.60;;;6.63;;
46377;SDS011;32083;47.360;9.650;2023-06-10T13:41:27;7.63;;;5.88;;
46377;SDS011;32083;47.360;9.650;2023-06-10T13:43:54;7.18;;;6.25;;
46377;SDS011;32083;47.360;9.650;2023-06-10T13:46:20;7.55;;;6.65;;
46377;SDS011;32083;47.360;9.650;2023-06-10T13:48:49;5.88;;;5.35;;
46377;SDS011;32083;47.360;9.650;2023-06-10T13:51:15;7.15;;;6.50;;
46377;SDS011;32083;47.360;9.650;2023-06-10T13:53:41;6.63;;;6.00;;
46377;SDS011;32083;47.360;9.650;2023-06-10T13:56:07;5.63;;;5.15;;
46377;SDS011;32083;47.360;9.650;2023-06-10T13:58:33;5.60;;;5.10;;
46377;SDS011;32083;47.360;9.650;2023-06-10T14:01:04;6.13;;;5.53;;
46377;SDS011;32083;47.360;9.650;2023-06-10T14:03:30;7.57;;;5.32;;
46377;SDS011;32083;47.360;9.650;2023-06-10T14:05:56;7.20;;;5.75;;
46377;SDS011;32083;47.360;9.650;2023-06-10T14:08:22;6.65;;;6.15;;
46377;SDS011;32083;47.360;9.650;2023-06-10T14:10:48;6.05;;;5.45;;
46377;SDS011;32083;47.360;9.650;2023-06-10T14:13:16;6.28;;;5.68;;
46377;SDS011;32083;47.360;9.650;2023-06-10T14:15:42;6.70;;;6.15;;
46377;SDS011;32083;47.360;9.650;2023-06-10T14:18:08;6.22;;;5.72;;
46377;SDS011;32083;47.360;9.650;2023-06-10T14:20:34;6.10;;;5.60;;
46377;SDS011;32083;47.360;9.650;2023-06-10T14:23:00;5.97;;;5.47;;
46377;SDS011;32083;47.360;9.650;2023-06-10T14:25:26;6.13;;;5.50;;
46377;SDS011;32083;47.360;9.650;2023-06-10T14:27:51;6.00;;;5.25;;
46377;SDS011;32083;47.360;9.650;2023-06-10T14:30:17;5.40;;;4.90;;
46377;SDS011;32083;47.360;9.650;2023-06-10T14:32:43;5.70;;;5.20;;
46377;SDS011;32083;47.360;9.650;2023-06-10T14:35:09;5.75;;;5.25;;
46377;SDS011;32083;47.360;9.650;2023-06-10T14:37:35;5.85;;;5.03;;
46377;SDS011;32083;47.360;9.650;2023-06-10T14:40:02;5.43;;;5.03;;
46377;SDS011;32083;47.360;9.650;2023-06-10T14:42:29;5.60;;;5.10;;
46377;SDS011;32083;47.360;9.650;2023-06-10T14:44:57;5.47;;;4.97;;
46377;SDS011;32083;47.360;9.650;2023-06-10T14:47:23;5.72;;;5.22;;
46377;SDS011;32083;47.360;9.650;2023-06-10T14:49:49;7.15;;;5.63;;
46377;SDS011;32083;47.360;9.650;2023-06-10T14:52:15;5.45;;;5.05;;
46377;SDS011;32083;47.360;9.650;2023-06-10T14:54:41;5.65;;;5.10;;
46377;SDS011;32083;47.360;9.650;2023-06-10T14:57:07;6.18;;;5.68;;
46377;SDS011;32083;47.360;9.650;2023-06-10T14:59:33;6.65;;;5.78;;
46377;SDS011;32083;47.360;9.650;2023-06-10T15:02:00;6.07;;;5.45;;
46377;SDS011;32083;47.360;9.650;2023-06-10T15:04:26;6.07;;;5.43;;
46377;SDS011;32083;47.360;9.650;2023-06-10T15:06:53;5.68;;;5.13;;
46377;SDS011;32083;47.360;9.650;2023-06-10T15:09:19;6.00;;;4.90;;
46377;SDS011;32083;47.360;9.650;2023-06-10T15:11:45;5.88;;;5.15;;
46377;SDS011;32083;47.360;9.650;2023-06-10T15:14:11;6.13;;;4.50;;
46377;SDS011;32083;47.360;9.650;2023-06-10T15:16:37;4.90;;;4.50;;
46377;SDS011;32083;47.360;9.650;2023-06-10T15:19:03;5.30;;;4.80;;
46377;SDS011;32083;47.360;9.650;2023-06-10T15:21:31;6.45;;;5.40;;
46377;SDS011;32083;47.360;9.650;2023-06-10T15:23:57;5.55;;;5.05;;
46377;SDS011;32083;47.360;9.650;2023-06-10T15:26:23;5.78;;;5.18;;
46377;SDS011;32083;47.360;9.650;2023-06-10T15:28:49;6.80;;;4.80;;
46377;SDS011;32083;47.360;9.650;2023-06-10T15:31:15;8.93;;;5.20;;
46377;SDS011;32083;47.360;9.650;2023-06-10T15:33:41;5.53;;;4.22;;
46377;SDS011;32083;47.360;9.650;2023-06-10T15:36:07;5.95;;;4.47;;
46377;SDS011;32083;47.360;9.650;2023-06-10T15:38:33;6.30;;;5.18;;
46377;SDS011;32083;47.360;9.650;2023-06-10T15:40:59;4.88;;;4.47;;
46377;SDS011;32083;47.360;9.650;2023-06-10T15:43:25;4.75;;;4.25;;
46377;SDS011;32083;47.360;9.650;2023-06-10T15:45:51;4.90;;;4.50;;
46377;SDS011;32083;47.360;9.650;2023-06-10T15:48:17;4.60;;;4.20;;
46377;SDS011;32083;47.360;9.650;2023-06-10T15:50:43;5.43;;;4.95;;
46377;SDS011;32083;47.360;9.650;2023-06-10T15:53:10;4.65;;;4.25;;
46377;SDS011;32083;47.360;9.650;2023-06-10T15:55:36;4.85;;;4.45;;
46377;SDS011;32083;47.360;9.650;2023-06-10T15:58:02;4.53;;;4.13;;
46377;SDS011;32083;47.360;9.650;2023-06-10T16:00:29;7.35;;;4.50;;
46377;SDS011;32083;47.360;9.650;2023-06-10T16:02:55;5.80;;;4.82;;
46377;SDS011;32083;47.360;9.650;2023-06-10T16:05:21;6.68;;;4.80;;
46377;SDS011;32083;47.360;9.650;2023-06-10T16:07:47;4.78;;;4.22;;
46377;SDS011;32083;47.360;9.650;2023-06-10T16:10:13;4.78;;;4.05;;
46377;SDS011;32083;47.360;9.650;2023-06-10T16:12:39;6.13;;;4.15;;
46377;SDS011;32083;47.360;9.650;2023-06-10T16:15:05;4.88;;;4.47;;
46377;SDS011;32083;47.360;9.650;2023-06-10T16:17:31;11.38;;;4.95;;
46377;SDS011;32083;47.360;9.650;2023-06-10T16:19:57;4.55;;;3.40;;
46377;SDS011;32083;47.360;9.650;2023-06-10T16:22:23;5.22;;;3.72;;
46377;SDS011;32083;47.360;9.650;2023-06-10T16:24:50;5.47;;;4.35;;
46377;SDS011;32083;47.360;9.650;2023-06-10T16:27:18;7.13;;;3.55;;
46377;SDS011;32083;47.360;9.650;2023-06-10T16:29:45;4.00;;;3.60;;
46377;SDS011;32083;47.360;9.650;2023-06-10T16:32:11;3.83;;;3.53;;
46377;SDS011;32083;47.360;9.650;2023-06-10T16:34:37;4.47;;;3.78;;
46377;SDS011;32083;47.360;9.650;2023-06-10T16:37:02;4.95;;;3.88;;
46377;SDS011;32083;47.360;9.650;2023-06-10T16:39:29;3.58;;;3.10;;
46377;SDS011;32083;47.360;9.650;2023-06-10T16:41:55;7.38;;;3.67;;
46377;SDS011;32083;47.360;9.650;2023-06-10T16:44:20;5.13;;;3.22;;
46377;SDS011;32083;47.360;9.650;2023-06-10T16:46:46;3.22;;;2.80;;
46377;SDS011;32083;47.360;9.650;2023-06-10T16:49:12;5.00;;;3.67;;
46377;SDS011;32083;47.360;9.650;2023-06-10T16:51:38;3.72;;;2.80;;
46377;SDS011;32083;47.360;9.650;2023-06-10T16:54:04;3.78;;;3.45;;
46377;SDS011;32083;47.360;9.650;2023-06-10T16:56:30;3.22;;;2.92;;
46377;SDS011;32083;47.360;9.650;2023-06-10T16:58:56;3.78;;;3.33;;
46377;SDS011;32083;47.360;9.650;2023-06-10T17:01:22;3.58;;;3.00;;
46377;SDS011;32083;47.360;9.650;2023-06-10T17:03:48;5.68;;;2.97;;
46377;SDS011;32083;47.360;9.650;2023-06-10T17:06:13;3.30;;;3.10;;
46377;SDS011;32083;47.360;9.650;2023-06-10T17:08:39;3.20;;;2.90;;
46377;SDS011;32083;47.360;9.650;2023-06-10T17:11:05;5.90;;;3.00;;
46377;SDS011;32083;47.360;9.650;2023-06-10T17:13:31;3.30;;;3.00;;
46377;SDS011;32083;47.360;9.650;2023-06-10T17:15:57;5.22;;;2.97;;
46377;SDS011;32083;47.360;9.650;2023-06-10T17:18:23;4.57;;;3.10;;
46377;SDS011;32083;47.360;9.650;2023-06-10T17:20:49;4.45;;;3.58;;
46377;SDS011;32083;47.360;9.650;2023-06-10T17:23:15;3.22;;;2.92;;
46377;SDS011;32083;47.360;9.650;2023-06-10T17:25:41;3.95;;;3.65;;
46377;SDS011;32083;47.360;9.650;2023-06-10T17:28:07;4.82;;;3.03;;
46377;SDS011;32083;47.360;9.650;2023-06-10T17:30:33;3.28;;;2.97;;
46377;SDS011;32083;47.360;9.650;2023-06-10T17:32:58;3.55;;;3.10;;
46377;SDS011;32083;47.360;9.650;2023-06-10T17:35:24;3.15;;;2.85;;
46377;SDS011;32083;47.360;9.650;2023-06-10T17:37:50;4.30;;;3.15;;
46377;SDS011;32083;47.360;9.650;2023-06-10T17:40:16;3.33;;;2.95;;
46377;SDS011;32083;47.360;9.650;2023-06-10T17:42:42;3.30;;;3.00;;
46377;SDS011;32083;47.360;9.650;2023-06-10T17:45:09;3.63;;;3.33;;
46377;SDS011;32083;47.360;9.650;2023-06-10T17:47:35;3.20;;;2.95;;
46377;SDS011;32083;47.360;9.650;2023-06-10T17:50:01;8.63;;;3.70;;
46377;SDS011;32083;47.360;9.650;2023-06-10T17:52:27;3.47;;;3.00;;
46377;SDS011;32083;47.360;9.650;2023-06-10T17:54:53;5.47;;;3.45;;
46377;SDS011;32083;47.360;9.650;2023-06-10T17:57:19;3.67;;;2.88;;
46377;SDS011;32083;47.360;9.650;2023-06-10T17:59:45;3.28;;;2.97;;
46377;SDS011;32083;47.360;9.650;2023-06-10T18:02:12;3.95;;;2.97;;
46377;SDS011;32083;47.360;9.650;2023-06-10T18:04:38;3.42;;;3.13;;
46377;SDS011;32083;47.360;9.650;2023-06-10T18:07:04;4.88;;;3.38;;
46377;SDS011;32083;47.360;9.650;2023-06-10T18:09:30;4.85;;;3.20;;
46377;SDS011;32083;47.360;9.650;2023-06-10T18:11:56;3.72;;;3.10;;
46377;SDS011;32083;47.360;9.650;2023-06-10T18:14:22;5.40;;;3.70;;
46377;SDS011;32083;47.360;9.650;2023-06-10T18:16:48;3.55;;;3.25;;
46377;SDS011;32083;47.360;9.650;2023-06-10T18:19:14;3.17;;;2.88;;
46377;SDS011;32083;47.360;9.650;2023-06-10T18:21:40;9.95;;;3.53;;
46377;SDS011;32083;47.360;9.650;2023-06-10T18:24:06;5.65;;;3.63;;
46377;SDS011;32083;47.360;9.650;2023-06-10T18:26:33;3.20;;;2.90;;
46377;SDS011;32083;47.360;9.650;2023-06-10T18:28:59;3.25;;;2.90;;
46377;SDS011;32083;47.360;9.650;2023-06-10T18:31:25;4.95;;;2.72;;
46377;SDS011;32083;47.360;9.650;2023-06-10T18:33:53;3.05;;;2.85;;
46377;SDS011;32083;47.360;9.650;2023-06-10T18:36:18;3.75;;;3.35;;
46377;SDS011;32083;47.360;9.650;2023-06-10T18:38:44;3.65;;;3.35;;
46377;SDS011;32083;47.360;9.650;2023-06-10T18:41:11;5.97;;;3.28;;
46377;SDS011;32083;47.360;9.650;2023-06-10T18:43:37;3.53;;;3.22;;
46377;SDS011;32083;47.360;9.650;2023-06-10T18:46:03;3.22;;;2.90;;
46377;SDS011;32083;47.360;9.650;2023-06-10T18:48:28;3.42;;;3.13;;
46377;SDS011;32083;47.360;9.650;2023-06-10T18:50:55;4.28;;;3.88;;
46377;SDS011;32083;47.360;9.650;2023-06-10T18:53:21;3.20;;;2.90;;
46377;SDS011;32083;47.360;9.650;2023-06-10T18:55:47;3.80;;;3.10;;
46377;SDS011;32083;47.360;9.650;2023-06-10T18:58:12;3.58;;;3.28;;
46377;SDS011;32083;47.360;9.650;2023-06-10T19:00:38;4.38;;;3.33;;
46377;SDS011;32083;47.360;9.650;2023-06-10T19:03:04;5.32;;;3.25;;
46377;SDS011;32083;47.360;9.650;2023-06-10T19:05:31;5.70;;;3.92;;
46377;SDS011;32083;47.360;9.650;2023-06-10T19:07:57;4.22;;;3.25;;
46377;SDS011;32083;47.360;9.650;2023-06-10T19:10:23;4.60;;;3.55;;